sensor_id;sensor_type;location;lat;lon;timestamp;pressure;altitude;pressure_sealevel;temperature;humidity
58534;BME280;44109;52.398;7.024;2023-10-08T00:00:32;101929.16;;;19.70;100.00
58534;BME280;44109;52.398;7.024;2023-10-08T00:03:20;101944.03;;;19.78;100.00
58534;BME280;44109;52.398;7.024;2023-10-08T00:05:48;101938.38;;;19.78;100.00
58534;BME280;44109;52.398;7.024;2023-10-08T00:08:16;101932.34;;;19.80;100.00
58534;BME280;44109;52.398;7.024;2023-10-08T00:10:52;101938.81;;;19.66;100.00
58534;BME280;44109;52.398;7.024;2023-10-08T00:13:30;101925.13;;;19.79;100.00
58534;BME280;44109;52.398;7.024;2023-10-08T00:16:02;101936.44;;;19.36;100.00
58534;BME280;44109;52.398;7.024;2023-10-08T00:18:37;101956.47;;;18.98;100.00
58534;BME280;44109;52.398;7.024;2023-10-08T00:21:08;101973.25;;;18.59;100.00
58534;BME280;44109;52.398;7.024;2023-10-08T00:23:46;101976.34;;;18.29;100.00
58534;BME280;44109;52.398;7.024;2023-10-08T00:26:20;101972.34;;;18.27;100.00
58534;BME280;44109;52.398;7.024;2023-10-08T00:28:54;101981.13;;;18.25;100.00
58534;BME280;44109;52.398;7.024;2023-10-08T00:31:23;102000.56;;;18.59;100.00
58534;BME280;44109;52.398;7.024;2023-10-08T00:33:56;101993.28;;;18.50;100.00
58534;BME280;44109;52.398;7.024;2023-10-08T00:36:24;102012.56;;;18.52;100.00
58534;BME280;44109;52.398;7.024;2023-10-08T00:38:51;102009.88;;;17.97;100.00
58534;BME280;44109;52.398;7.024;2023-10-08T00:41:22;102008.53;;;17.80;100.00
58534;BME280;44109;52.398;7.024;2023-10-08T00:43:54;102004.16;;;16.94;100.00
58534;BME280;44109;52.398;7.024;2023-10-08T00:46:25;102020.81;;;16.76;100.00
58534;BME280;44109;52.398;7.024;2023-10-08T00:48:58;101981.34;;;16.58;100.00
58534;BME280;44109;52.398;7.024;2023-10-08T00:51:51;101999.53;;;17.09;100.00
58534;BME280;44109;52.398;7.024;2023-10-08T00:54:32;102004.75;;;16.73;100.00
58534;BME280;44109;52.398;7.024;2023-10-08T00:57:07;102034.09;;;16.22;100.00
58534;BME280;44109;52.398;7.024;2023-10-08T00:59:37;102050.00;;;16.45;100.00
58534;BME280;44109;52.398;7.024;2023-10-08T01:02:11;102049.63;;;16.20;100.00
58534;BME280;44109;52.398;7.024;2023-10-08T01:04:46;102053.41;;;15.78;100.00
58534;BME280;44109;52.398;7.024;2023-10-08T01:07:18;102060.34;;;16.14;100.00
58534;BME280;44109;52.398;7.024;2023-10-08T01:09:46;102059.22;;;16.19;100.00
58534;BME280;44109;52.398;7.024;2023-10-08T01:12:20;102038.13;;;15.98;100.00
58534;BME280;44109;52.398;7.024;2023-10-08T01:14:51;102030.66;;;16.36;100.00
58534;BME280;44109;52.398;7.024;2023-10-08T01:17:21;102054.38;;;15.89;100.00
58534;BME280;44109;52.398;7.024;2023-10-08T01:19:51;102021.63;;;15.21;100.00
58534;BME280;44109;52.398;7.024;2023-10-08T01:22:24;102040.28;;;15.36;100.00
58534;BME280;44109;52.398;7.024;2023-10-08T01:24:55;102049.03;;;15.58;100.00
58534;BME280;44109;52.398;7.024;2023-10-08T01:27:24;102039.47;;;15.59;100.00
58534;BME280;44109;52.398;7.024;2023-10-08T01:29:54;102057.53;;;15.19;100.00
58534;BME280;44109;52.398;7.024;2023-10-08T01:32:34;102037.59;;;15.43;100.00
58534;BME280;44109;52.398;7.024;2023-10-08T01:35:03;102050.44;;;15.44;100.00
58534;BME280;44109;52.398;7.024;2023-10-08T01:37:49;102024.50;;;15.47;100.00
58534;BME280;44109;52.398;7.024;2023-10-08T01:40:17;102025.28;;;15.48;100.00
58534;BME280;44109;52.398;7.024;2023-10-08T01:42:45;102039.66;;;15.46;100.00
58534;BME280;44109;52.398;7.024;2023-10-08T01:45:12;102038.00;;;15.65;100.00
58534;BME280;44109;52.398;7.024;2023-10-08T01:47:43;102025.50;;;15.59;100.00
58534;BME280;44109;52.398;7.024;2023-10-08T01:50:11;102043.72;;;15.72;100.00
58534;BME280;44109;52.398;7.024;2023-10-08T01:52:48;102072.50;;;15.30;100.00
58534;BME280;44109;52.398;7.024;2023-10-08T01:55:17;102079.75;;;15.12;100.00
58534;BME280;44109;52.398;7.024;2023-10-08T01:57:45;102040.47;;;15.24;100.00
58534;BME280;44109;52.398;7.024;2023-10-08T02:00:14;102049.47;;;15.37;100.00
58534;BME280;44109;52.398;7.024;2023-10-08T02:02:46;102052.03;;;15.45;100.00
58534;BME280;44109;52.398;7.024;2023-10-08T02:05:13;102087.28;;;14.50;100.00
58534;BME280;44109;52.398;7.024;2023-10-08T02:07:41;102102.84;;;14.89;100.00
58534;BME280;44109;52.398;7.024;2023-10-08T02:10:11;102117.28;;;15.11;100.00
58534;BME280;44109;52.398;7.024;2023-10-08T02:12:40;102105.06;;;14.80;100.00
58534;BME280;44109;52.398;7.024;2023-10-08T02:15:09;102105.31;;;14.91;100.00
58534;BME280;44109;52.398;7.024;2023-10-08T02:17:37;102121.59;;;14.69;100.00
58534;BME280;44109;52.398;7.024;2023-10-08T02:20:06;102131.25;;;14.91;100.00
58534;BME280;44109;52.398;7.024;2023-10-08T02:22:35;102133.81;;;14.45;100.00
58534;BME280;44109;52.398;7.024;2023-10-08T02:25:04;102143.88;;;14.66;100.00
58534;BME280;44109;52.398;7.024;2023-10-08T02:27:36;102142.44;;;14.72;100.00
58534;BME280;44109;52.398;7.024;2023-10-08T02:30:05;102140.03;;;14.90;100.00
58534;BME280;44109;52.398;7.024;2023-10-08T02:32:36;102134.03;;;15.11;100.00
58534;BME280;44109;52.398;7.024;2023-10-08T02:35:04;102137.41;;;15.20;100.00
58534;BME280;44109;52.398;7.024;2023-10-08T02:37:32;102130.22;;;15.19;100.00
58534;BME280;44109;52.398;7.024;2023-10-08T02:40:01;102115.56;;;15.26;100.00
58534;BME280;44109;52.398;7.024;2023-10-08T02:42:40;102121.97;;;15.26;100.00
58534;BME280;44109;52.398;7.024;2023-10-08T02:45:11;102124.03;;;15.29;100.00
58534;BME280;44109;52.398;7.024;2023-10-08T02:47:41;102123.91;;;15.22;100.00
58534;BME280;44109;52.398;7.024;2023-10-08T02:50:11;102145.69;;;15.13;100.00
58534;BME280;44109;52.398;7.024;2023-10-08T02:52:43;102142.13;;;15.16;100.00
58534;BME280;44109;52.398;7.024;2023-10-08T02:55:11;102147.19;;;15.30;100.00
58534;BME280;44109;52.398;7.024;2023-10-08T02:57:52;102128.44;;;15.30;100.00
58534;BME280;44109;52.398;7.024;2023-10-08T03:00:20;102126.25;;;15.20;100.00
58534;BME280;44109;52.398;7.024;2023-10-08T03:02:49;102152.84;;;15.33;100.00
58534;BME280;44109;52.398;7.024;2023-10-08T03:05:17;102138.75;;;14.87;100.00
58534;BME280;44109;52.398;7.024;2023-10-08T03:07:48;102144.63;;;15.21;100.00
58534;BME280;44109;52.398;7.024;2023-10-08T03:10:17;102133.75;;;14.96;100.00
58534;BME280;44109;52.398;7.024;2023-10-08T03:12:45;102126.31;;;15.23;100.00
58534;BME280;44109;52.398;7.024;2023-10-08T03:15:15;102131.69;;;15.32;100.00
58534;BME280;44109;52.398;7.024;2023-10-08T03:17:55;102122.63;;;15.19;100.00
58534;BME280;44109;52.398;7.024;2023-10-08T03:20:34;102158.16;;;15.19;100.00
58534;BME280;44109;52.398;7.024;2023-10-08T03:23:09;102147.16;;;15.26;100.00
58534;BME280;44109;52.398;7.024;2023-10-08T03:25:51;102156.56;;;15.18;100.00
58534;BME280;44109;52.398;7.024;2023-10-08T03:28:27;102156.41;;;15.11;100.00
58534;BME280;44109;52.398;7.024;2023-10-08T03:30:56;102157.00;;;15.20;100.00
58534;BME280;44109;52.398;7.024;2023-10-08T03:33:30;102151.56;;;15.27;100.00
58534;BME280;44109;52.398;7.024;2023-10-08T03:36:01;102156.63;;;15.21;100.00
58534;BME280;44109;52.398;7.024;2023-10-08T03:38:40;102138.44;;;15.31;100.00
58534;BME280;44109;52.398;7.024;2023-10-08T03:41:18;102141.69;;;15.33;100.00
58534;BME280;44109;52.398;7.024;2023-10-08T03:43:55;102150.44;;;15.32;100.00
58534;BME280;44109;52.398;7.024;2023-10-08T03:46:29;102143.00;;;15.20;100.00
58534;BME280;44109;52.398;7.024;2023-10-08T03:48:58;102135.81;;;15.19;100.00
58534;BME280;44109;52.398;7.024;2023-10-08T03:51:31;102114.81;;;15.29;100.00
58534;BME280;44109;52.398;7.024;2023-10-08T03:54:06;102117.63;;;15.29;100.00
58534;BME280;44109;52.398;7.024;2023-10-08T03:56:42;102134.47;;;15.32;100.00
58534;BME280;44109;52.398;7.024;2023-10-08T03:59:15;102152.06;;;15.33;100.00
58534;BME280;44109;52.398;7.024;2023-10-08T04:01:48;102156.03;;;15.32;100.00
58534;BME280;44109;52.398;7.024;2023-10-08T04:04:20;102150.22;;;15.21;100.00
58534;BME280;44109;52.398;7.024;2023-10-08T04:06:59;102156.84;;;15.32;100.00
58534;BME280;44109;52.398;7.024;2023-10-08T04:09:41;102157.22;;;15.11;100.00
58534;BME280;44109;52.398;7.024;2023-10-08T04:12:08;102165.53;;;15.27;100.00
58534;BME280;44109;52.398;7.024;2023-10-08T04:14:37;102172.72;;;15.28;100.00
58534;BME280;44109;52.398;7.024;2023-10-08T04:17:07;102175.38;;;15.21;100.00
58534;BME280;44109;52.398;7.024;2023-10-08T04:19:35;102173.47;;;15.25;100.00
58534;BME280;44109;52.398;7.024;2023-10-08T04:22:03;102205.56;;;15.31;100.00
58534;BME280;44109;52.398;7.024;2023-10-08T04:24:41;102233.53;;;14.96;100.00
58534;BME280;44109;52.398;7.024;2023-10-08T04:27:10;102240.84;;;15.01;100.00
58534;BME280;44109;52.398;7.024;2023-10-08T04:29:37;102261.50;;;14.96;100.00
58534;BME280;44109;52.398;7.024;2023-10-08T04:32:09;102251.28;;;15.04;100.00
58534;BME280;44109;52.398;7.024;2023-10-08T04:34:48;102238.72;;;15.13;100.00
58534;BME280;44109;52.398;7.024;2023-10-08T04:37:18;102244.81;;;15.19;100.00
58534;BME280;44109;52.398;7.024;2023-10-08T04:39:46;102239.13;;;14.96;100.00
58534;BME280;44109;52.398;7.024;2023-10-08T04:42:20;102247.53;;;15.15;100.00
58534;BME280;44109;52.398;7.024;2023-10-08T04:44:52;102248.81;;;15.18;100.00
58534;BME280;44109;52.398;7.024;2023-10-08T04:47:22;102226.94;;;15.23;100.00
58534;BME280;44109;52.398;7.024;2023-10-08T04:49:59;102239.09;;;15.31;100.00
58534;BME280;44109;52.398;7.024;2023-10-08T04:52:30;102256.38;;;15.17;100.00
58534;BME280;44109;52.398;7.024;2023-10-08T04:55:00;102260.09;;;15.06;100.00
58534;BME280;44109;52.398;7.024;2023-10-08T04:57:38;102250.34;;;14.80;100.00
58534;BME280;44109;52.398;7.024;2023-10-08T05:00:10;102229.84;;;14.92;100.00
58534;BME280;44109;52.398;7.024;2023-10-08T05:02:42;102222.69;;;15.10;100.00
58534;BME280;44109;52.398;7.024;2023-10-08T05:05:16;102211.88;;;15.09;100.00
58534;BME280;44109;52.398;7.024;2023-10-08T05:07:55;102238.94;;;15.24;100.00
58534;BME280;44109;52.398;7.024;2023-10-08T05:10:43;102216.75;;;15.31;100.00
58534;BME280;44109;52.398;7.024;2023-10-08T05:13:27;102221.16;;;15.32;100.00
58534;BME280;44109;52.398;7.024;2023-10-08T05:16:11;102251.88;;;15.13;100.00
58534;BME280;44109;52.398;7.024;2023-10-08T05:18:57;102253.00;;;14.92;100.00
58534;BME280;44109;52.398;7.024;2023-10-08T05:21:40;102273.03;;;14.94;100.00
58534;BME280;44109;52.398;7.024;2023-10-08T05:24:18;102279.09;;;14.81;100.00
58534;BME280;44109;52.398;7.024;2023-10-08T05:26:53;102289.09;;;14.66;100.00
58534;BME280;44109;52.398;7.024;2023-10-08T05:29:45;102293.69;;;14.42;100.00
58534;BME280;44109;52.398;7.024;2023-10-08T05:32:39;102293.63;;;14.55;100.00
58534;BME280;44109;52.398;7.024;2023-10-08T05:35:33;102293.41;;;14.47;100.00
58534;BME280;44109;52.398;7.024;2023-10-08T05:38:17;102289.25;;;14.89;100.00
58534;BME280;44109;52.398;7.024;2023-10-08T05:41:04;102279.28;;;15.07;100.00
58534;BME280;44109;52.398;7.024;2023-10-08T05:43:43;102272.75;;;15.00;100.00
58534;BME280;44109;52.398;7.024;2023-10-08T05:46:22;102298.47;;;14.74;100.00
58534;BME280;44109;52.398;7.024;2023-10-08T05:49:07;102304.66;;;14.98;100.00
58534;BME280;44109;52.398;7.024;2023-10-08T05:52:05;102287.00;;;14.94;100.00
58534;BME280;44109;52.398;7.024;2023-10-08T05:54:51;102319.69;;;15.10;100.00
58534;BME280;44109;52.398;7.024;2023-10-08T05:57:52;102319.00;;;14.97;100.00
58534;BME280;44109;52.398;7.024;2023-10-08T06:00:31;102305.78;;;14.78;100.00
58534;BME280;44109;52.398;7.024;2023-10-08T06:03:13;102306.66;;;14.82;100.00
58534;BME280;44109;52.398;7.024;2023-10-08T06:06:02;102297.44;;;14.97;100.00
58534;BME280;44109;52.398;7.024;2023-10-08T06:08:46;102300.13;;;15.10;100.00
58534;BME280;44109;52.398;7.024;2023-10-08T06:11:33;102324.47;;;15.09;100.00
58534;BME280;44109;52.398;7.024;2023-10-08T06:14:11;102319.50;;;15.03;100.00
58534;BME280;44109;52.398;7.024;2023-10-08T06:16:43;102324.91;;;15.11;100.00
58534;BME280;44109;52.398;7.024;2023-10-08T06:19:13;102337.88;;;15.19;100.00
58534;BME280;44109;52.398;7.024;2023-10-08T06:21:42;102338.25;;;15.18;100.00
58534;BME280;44109;52.398;7.024;2023-10-08T06:24:12;102351.47;;;15.21;100.00
58534;BME280;44109;52.398;7.024;2023-10-08T06:26:43;102359.16;;;15.24;100.00
58534;BME280;44109;52.398;7.024;2023-10-08T06:29:15;102336.47;;;15.10;100.00
58534;BME280;44109;52.398;7.024;2023-10-08T06:31:53;102368.97;;;15.34;100.00
58534;BME280;44109;52.398;7.024;2023-10-08T06:34:23;102354.69;;;15.39;100.00
58534;BME280;44109;52.398;7.024;2023-10-08T06:36:55;102351.97;;;15.42;100.00
58534;BME280;44109;52.398;7.024;2023-10-08T06:39:25;102352.34;;;15.41;100.00
58534;BME280;44109;52.398;7.024;2023-10-08T06:42:00;102336.75;;;15.40;100.00
58534;BME280;44109;52.398;7.024;2023-10-08T06:44:29;102331.09;;;15.36;100.00
58534;BME280;44109;52.398;7.024;2023-10-08T06:46:57;102309.72;;;15.28;100.00
58534;BME280;44109;52.398;7.024;2023-10-08T06:49:24;102298.56;;;15.12;100.00
58534;BME280;44109;52.398;7.024;2023-10-08T06:51:54;102333.47;;;15.18;100.00
58534;BME280;44109;52.398;7.024;2023-10-08T06:54:21;102344.53;;;15.31;100.00
58534;BME280;44109;52.398;7.024;2023-10-08T06:56:51;102353.28;;;15.29;100.00
58534;BME280;44109;52.398;7.024;2023-10-08T06:59:19;102336.78;;;15.24;100.00
58534;BME280;44109;52.398;7.024;2023-10-08T07:01:49;102360.47;;;15.30;100.00
58534;BME280;44109;52.398;7.024;2023-10-08T07:04:18;102358.88;;;15.29;100.00
58534;BME280;44109;52.398;7.024;2023-10-08T07:06:48;102365.81;;;15.35;100.00
58534;BME280;44109;52.398;7.024;2023-10-08T07:09:17;102366.44;;;15.29;100.00
58534;BME280;44109;52.398;7.024;2023-10-08T07:11:57;102382.84;;;15.30;100.00
58534;BME280;44109;52.398;7.024;2023-10-08T07:14:31;102385.00;;;15.37;100.00
58534;BME280;44109;52.398;7.024;2023-10-08T07:17:00;102411.00;;;15.37;100.00
58534;BME280;44109;52.398;7.024;2023-10-08T07:19:34;102409.75;;;15.19;100.00
58534;BME280;44109;52.398;7.024;2023-10-08T07:22:05;102401.09;;;15.24;100.00
58534;BME280;44109;52.398;7.024;2023-10-08T07:24:44;102385.22;;;15.28;100.00
58534;BME280;44109;52.398;7.024;2023-10-08T07:27:18;102397.72;;;15.50;100.00
58534;BME280;44109;52.398;7.024;2023-10-08T07:29:47;102373.06;;;15.56;100.00
58534;BME280;44109;52.398;7.024;2023-10-08T07:32:15;102349.06;;;15.55;100.00
58534;BME280;44109;52.398;7.024;2023-10-08T07:34:45;102351.19;;;15.61;100.00
58534;BME280;44109;52.398;7.024;2023-10-08T07:37:12;102354.19;;;15.68;100.00
58534;BME280;44109;52.398;7.024;2023-10-08T07:39:41;102367.44;;;15.71;100.00
58534;BME280;44109;52.398;7.024;2023-10-08T07:42:13;102349.66;;;15.44;100.00
58534;BME280;44109;52.398;7.024;2023-10-08T07:44:42;102420.38;;;15.80;100.00
58534;BME280;44109;52.398;7.024;2023-10-08T07:47:09;102420.97;;;15.89;100.00
58534;BME280;44109;52.398;7.024;2023-10-08T07:49:38;102414.72;;;15.96;100.00
58534;BME280;44109;52.398;7.024;2023-10-08T07:52:06;102444.41;;;16.01;100.00
58534;BME280;44109;52.398;7.024;2023-10-08T07:54:34;102456.63;;;15.92;100.00
58534;BME280;44109;52.398;7.024;2023-10-08T07:57:02;102443.00;;;16.10;100.00
58534;BME280;44109;52.398;7.024;2023-10-08T07:59:38;102415.31;;;16.24;100.00
58534;BME280;44109;52.398;7.024;2023-10-08T08:02:09;102417.53;;;16.15;100.00
58534;BME280;44109;52.398;7.024;2023-10-08T08:04:38;102425.84;;;16.31;100.00
58534;BME280;44109;52.398;7.024;2023-10-08T08:07:09;102414.34;;;16.36;100.00
58534;BME280;44109;52.398;7.024;2023-10-08T08:09:42;102407.25;;;16.42;100.00
58534;BME280;44109;52.398;7.024;2023-10-08T08:12:16;102400.16;;;16.48;100.00
58534;BME280;44109;52.398;7.024;2023-10-08T08:14:45;102420.53;;;16.45;100.00
58534;BME280;44109;52.398;7.024;2023-10-08T08:17:15;102417.25;;;16.43;100.00
58534;BME280;44109;52.398;7.024;2023-10-08T08:19:45;102413.66;;;16.43;100.00
58534;BME280;44109;52.398;7.024;2023-10-08T08:22:17;102432.59;;;16.49;100.00
58534;BME280;44109;52.398;7.024;2023-10-08T08:24:48;102437.09;;;16.54;100.00
58534;BME280;44109;52.398;7.024;2023-10-08T08:27:19;102436.09;;;16.66;100.00
58534;BME280;44109;52.398;7.024;2023-10-08T08:29:53;102440.03;;;16.61;100.00
58534;BME280;44109;52.398;7.024;2023-10-08T08:32:23;102450.41;;;16.61;100.00
58534;BME280;44109;52.398;7.024;2023-10-08T08:34:51;102456.31;;;16.75;100.00
58534;BME280;44109;52.398;7.024;2023-10-08T08:37:19;102480.19;;;16.88;100.00
58534;BME280;44109;52.398;7.024;2023-10-08T08:39:48;102486.38;;;16.97;100.00
58534;BME280;44109;52.398;7.024;2023-10-08T08:42:21;102493.00;;;17.09;100.00
58534;BME280;44109;52.398;7.024;2023-10-08T08:44:50;102445.31;;;17.09;100.00
58534;BME280;44109;52.398;7.024;2023-10-08T08:47:25;102413.28;;;17.10;100.00
58534;BME280;44109;52.398;7.024;2023-10-08T08:49:55;102427.16;;;17.25;100.00
58534;BME280;44109;52.398;7.024;2023-10-08T08:52:34;102424.25;;;17.18;100.00
58534;BME280;44109;52.398;7.024;2023-10-08T08:55:03;102436.50;;;17.33;100.00
58534;BME280;44109;52.398;7.024;2023-10-08T08:57:36;102451.38;;;17.37;100.00
58534;BME280;44109;52.398;7.024;2023-10-08T09:00:06;102495.72;;;17.28;100.00
58534;BME280;44109;52.398;7.024;2023-10-08T09:02:38;102500.13;;;17.06;100.00
58534;BME280;44109;52.398;7.024;2023-10-08T09:05:07;102493.00;;;17.09;100.00
58534;BME280;44109;52.398;7.024;2023-10-08T09:07:55;102495.94;;;17.42;100.00
58534;BME280;44109;52.398;7.024;2023-10-08T09:10:25;102443.69;;;17.31;100.00
58534;BME280;44109;52.398;7.024;2023-10-08T09:12:55;102480.59;;;17.59;100.00
58534;BME280;44109;52.398;7.024;2023-10-08T09:15:25;102491.63;;;17.71;100.00
58534;BME280;44109;52.398;7.024;2023-10-08T09:17:56;102496.13;;;17.76;100.00
58534;BME280;44109;52.398;7.024;2023-10-08T09:20:27;102479.56;;;17.71;100.00
58534;BME280;44109;52.398;7.024;2023-10-08T09:23:07;102474.94;;;17.82;100.00
58534;BME280;44109;52.398;7.024;2023-10-08T09:25:38;102500.19;;;17.56;100.00
58534;BME280;44109;52.398;7.024;2023-10-08T09:28:06;102499.75;;;17.54;100.00
58534;BME280;44109;52.398;7.024;2023-10-08T09:30:35;102498.41;;;17.70;100.00
58534;BME280;44109;52.398;7.024;2023-10-08T09:33:06;102490.53;;;17.80;100.00
58534;BME280;44109;52.398;7.024;2023-10-08T09:35:35;102485.03;;;17.87;100.00
58534;BME280;44109;52.398;7.024;2023-10-08T09:38:07;102486.00;;;17.98;100.00
58534;BME280;44109;52.398;7.024;2023-10-08T09:40:36;102485.06;;;18.17;100.00
58534;BME280;44109;52.398;7.024;2023-10-08T09:43:04;102471.31;;;18.12;100.00
58534;BME280;44109;52.398;7.024;2023-10-08T09:45:35;102477.63;;;18.02;100.00
58534;BME280;44109;52.398;7.024;2023-10-08T09:48:10;102472.56;;;17.84;100.00
58534;BME280;44109;52.398;7.024;2023-10-08T09:50:41;102441.22;;;17.79;100.00
58534;BME280;44109;52.398;7.024;2023-10-08T09:53:11;102477.09;;;17.92;100.00
58534;BME280;44109;52.398;7.024;2023-10-08T09:55:46;102467.19;;;18.02;100.00
58534;BME280;44109;52.398;7.024;2023-10-08T09:58:20;102460.06;;;18.08;100.00
58534;BME280;44109;52.398;7.024;2023-10-08T10:00:51;102463.94;;;18.30;100.00
58534;BME280;44109;52.398;7.024;2023-10-08T10:03:24;102456.66;;;18.25;100.00
58534;BME280;44109;52.398;7.024;2023-10-08T10:05:53;102457.00;;;18.20;100.00
58534;BME280;44109;52.398;7.024;2023-10-08T10:08:25;102457.81;;;18.21;100.00
58534;BME280;44109;52.398;7.024;2023-10-08T10:10:58;102443.91;;;18.02;100.00
58534;BME280;44109;52.398;7.024;2023-10-08T10:13:28;102446.25;;;18.26;100.00
58534;BME280;44109;52.398;7.024;2023-10-08T10:15:57;102442.38;;;18.04;100.00
58534;BME280;44109;52.398;7.024;2023-10-08T10:18:29;102446.31;;;17.99;100.00
58534;BME280;44109;52.398;7.024;2023-10-08T10:21:27;102464.78;;;18.00;100.00
58534;BME280;44109;52.398;7.024;2023-10-08T10:23:59;102444.19;;;18.23;100.00
58534;BME280;44109;52.398;7.024;2023-10-08T10:26:30;102452.56;;;17.89;100.00
58534;BME280;44109;52.398;7.024;2023-10-08T10:29:21;102467.53;;;17.97;100.00
58534;BME280;44109;52.398;7.024;2023-10-08T10:31:53;102469.75;;;17.84;100.00
58534;BME280;44109;52.398;7.024;2023-10-08T10:34:25;102470.09;;;17.79;100.00
58534;BME280;44109;52.398;7.024;2023-10-08T10:36:55;102463.00;;;17.89;100.00
58534;BME280;44109;52.398;7.024;2023-10-08T10:39:25;102471.66;;;17.77;100.00
58534;BME280;44109;52.398;7.024;2023-10-08T10:41:57;102469.53;;;17.96;100.00
58534;BME280;44109;52.398;7.024;2023-10-08T10:44:28;102469.94;;;18.29;100.00
58534;BME280;44109;52.398;7.024;2023-10-08T10:46:57;102472.91;;;18.43;100.00
58534;BME280;44109;52.398;7.024;2023-10-08T10:49:48;102461.53;;;18.66;100.00
58534;BME280;44109;52.398;7.024;2023-10-08T10:52:20;102473.94;;;18.98;100.00
58534;BME280;44109;52.398;7.024;2023-10-08T10:55:00;102472.53;;;19.19;100.00
58534;BME280;44109;52.398;7.024;2023-10-08T10:57:47;102459.00;;;19.35;100.00
58534;BME280;44109;52.398;7.024;2023-10-08T11:00:23;102462.53;;;19.25;100.00
58534;BME280;44109;52.398;7.024;2023-10-08T11:03:23;102464.28;;;19.44;100.00
58534;BME280;44109;52.398;7.024;2023-10-08T11:05:56;102466.13;;;19.25;100.00
58534;BME280;44109;52.398;7.024;2023-10-08T11:08:32;102461.94;;;19.53;100.00
58534;BME280;44109;52.398;7.024;2023-10-08T11:11:01;102428.97;;;19.54;100.00
58534;BME280;44109;52.398;7.024;2023-10-08T11:13:33;102461.19;;;19.60;100.00
58534;BME280;44109;52.398;7.024;2023-10-08T11:16:08;102451.25;;;19.73;100.00
58534;BME280;44109;52.398;7.024;2023-10-08T11:18:44;102465.78;;;19.82;100.00
58534;BME280;44109;52.398;7.024;2023-10-08T11:21:17;102468.13;;;19.73;100.00
58534;BME280;44109;52.398;7.024;2023-10-08T11:23:51;102454.00;;;19.66;100.00
58534;BME280;44109;52.398;7.024;2023-10-08T11:26:23;102473.44;;;19.89;100.00
58534;BME280;44109;52.398;7.024;2023-10-08T11:28:59;102475.19;;;20.15;100.00
58534;BME280;44109;52.398;7.024;2023-10-08T11:31:29;102452.25;;;20.09;100.00
58534;BME280;44109;52.398;7.024;2023-10-08T11:34:00;102448.25;;;20.24;100.00
58534;BME280;44109;52.398;7.024;2023-10-08T11:36:37;102457.97;;;20.34;100.00
58534;BME280;44109;52.398;7.024;2023-10-08T11:39:15;102456.75;;;20.32;100.00
58534;BME280;44109;52.398;7.024;2023-10-08T11:41:58;102450.19;;;20.06;100.00
58534;BME280;44109;52.398;7.024;2023-10-08T11:44:30;102419.16;;;19.92;100.00
58534;BME280;44109;52.398;7.024;2023-10-08T11:47:02;102431.72;;;20.16;100.00
58534;BME280;44109;52.398;7.024;2023-10-08T11:49:38;102443.38;;;20.04;100.00
58534;BME280;44109;52.398;7.024;2023-10-08T11:52:14;102437.19;;;19.80;100.00
58534;BME280;44109;52.398;7.024;2023-10-08T11:54:44;102402.16;;;19.74;100.00
58534;BME280;44109;52.398;7.024;2023-10-08T11:57:14;102413.06;;;19.83;100.00
58534;BME280;44109;52.398;7.024;2023-10-08T11:59:47;102397.34;;;19.74;100.00
58534;BME280;44109;52.398;7.024;2023-10-08T12:02:20;102417.13;;;19.92;100.00
58534;BME280;44109;52.398;7.024;2023-10-08T12:04:48;102403.56;;;19.43;100.00
58534;BME280;44109;52.398;7.024;2023-10-08T12:07:18;102400.72;;;19.39;100.00
58534;BME280;44109;52.398;7.024;2023-10-08T12:09:46;102400.47;;;19.59;100.00
58534;BME280;44109;52.398;7.024;2023-10-08T12:12:15;102397.03;;;19.97;100.00
58534;BME280;44109;52.398;7.024;2023-10-08T12:14:48;102392.28;;;20.16;100.00
58534;BME280;44109;52.398;7.024;2023-10-08T12:17:20;102393.47;;;20.04;100.00
58534;BME280;44109;52.398;7.024;2023-10-08T12:19:56;102380.91;;;19.87;100.00
58534;BME280;44109;52.398;7.024;2023-10-08T12:22:25;102389.81;;;19.96;100.00
58534;BME280;44109;52.398;7.024;2023-10-08T12:24:54;102387.72;;;19.83;100.00
58534;BME280;44109;52.398;7.024;2023-10-08T12:27:22;102378.88;;;19.84;100.00
58534;BME280;44109;52.398;7.024;2023-10-08T12:29:51;102386.97;;;19.93;100.00
58534;BME280;44109;52.398;7.024;2023-10-08T12:32:18;102367.69;;;19.98;100.00
58534;BME280;44109;52.398;7.024;2023-10-08T12:34:52;102364.03;;;19.91;100.00
58534;BME280;44109;52.398;7.024;2023-10-08T12:37:19;102366.06;;;20.01;100.00
58534;BME280;44109;52.398;7.024;2023-10-08T12:39:50;102355.56;;;19.87;100.00
58534;BME280;44109;52.398;7.024;2023-10-08T12:42:26;102343.50;;;19.90;100.00
58534;BME280;44109;52.398;7.024;2023-10-08T12:44:54;102347.84;;;19.70;100.00
58534;BME280;44109;52.398;7.024;2023-10-08T12:47:23;102350.50;;;19.41;100.00
58534;BME280;44109;52.398;7.024;2023-10-08T12:49:54;102319.94;;;19.43;100.00
58534;BME280;44109;52.398;7.024;2023-10-08T12:52:23;102336.03;;;19.46;100.00
58534;BME280;44109;52.398;7.024;2023-10-08T12:54:55;102352.09;;;19.42;100.00
58534;BME280;44109;52.398;7.024;2023-10-08T12:57:30;102354.84;;;19.28;100.00
58534;BME280;44109;52.398;7.024;2023-10-08T13:00:00;102357.31;;;19.44;100.00
58534;BME280;44109;52.398;7.024;2023-10-08T13:02:29;102323.94;;;19.42;100.00
58534;BME280;44109;52.398;7.024;2023-10-08T13:04:57;102343.38;;;19.62;100.00
58534;BME280;44109;52.398;7.024;2023-10-08T13:07:25;102349.78;;;19.59;100.00
58534;BME280;44109;52.398;7.024;2023-10-08T13:09:55;102353.84;;;19.65;100.00